sensor_id;sensor_type;location;lat;lon;timestamp;pressure;altitude;pressure_sealevel;temperature;humidity
60583;BME280;46415;47.536;19.066;2023-11-21T00:02:59;-18402.63;;;6.36;100.00
60583;BME280;46415;47.536;19.066;2023-11-21T00:06:02;-18397.25;;;6.17;100.00
60583;BME280;46415;47.536;19.066;2023-11-21T00:09:05;-18393.13;;;6.01;100.00
60583;BME280;46415;47.536;19.066;2023-11-21T00:12:08;-18390.38;;;5.91;100.00
60583;BME280;46415;47.536;19.066;2023-11-21T00:15:13;-18387.50;;;5.81;100.00
60583;BME280;46415;47.536;19.066;2023-11-21T00:18:18;-18384.88;;;5.71;100.00
60583;BME280;46415;47.536;19.066;2023-11-21T00:21:21;-18386.13;;;5.75;100.00
60583;BME280;46415;47.536;19.066;2023-11-21T00:24:24;-18385.28;;;5.72;100.00
60583;BME280;46415;47.536;19.066;2023-11-21T00:27:27;-18384.47;;;5.69;100.00
60583;BME280;46415;47.536;19.066;2023-11-21T00:30:30;-18384.06;;;5.68;100.00
60583;BME280;46415;47.536;19.066;2023-11-21T00:33:33;-18383.09;;;5.64;100.00
60583;BME280;46415;47.536;19.066;2023-11-21T00:36:36;-18380.75;;;5.56;100.00
60583;BME280;46415;47.536;19.066;2023-11-21T00:39:39;-18377.59;;;5.44;100.00
60583;BME280;46415;47.536;19.066;2023-11-21T00:42:42;-18377.72;;;5.45;100.00
60583;BME280;46415;47.536;19.066;2023-11-21T00:45:45;-18378.16;;;5.46;100.00
60583;BME280;46415;47.536;19.066;2023-11-21T00:48:47;-18379.25;;;5.50;100.00
60583;BME280;46415;47.536;19.066;2023-11-21T00:51:51;-18380.47;;;5.55;100.00
60583;BME280;46415;47.536;19.066;2023-11-21T00:54:54;-18379.66;;;5.52;100.00
60583;BME280;46415;47.536;19.066;2023-11-21T00:57:57;-18381.31;;;5.58;100.00
60583;BME280;46415;47.536;19.066;2023-11-21T01:01:01;-18381.59;;;5.59;100.00
60583;BME280;46415;47.536;19.066;2023-11-21T01:04:04;-18380.47;;;5.55;100.00
60583;BME280;46415;47.536;19.066;2023-11-21T01:07:07;-18377.72;;;5.45;100.00
60583;BME280;46415;47.536;19.066;2023-11-21T01:10:10;-18376.38;;;5.40;100.00
60583;BME280;46415;47.536;19.066;2023-11-21T01:13:16;-18380.63;;;5.55;100.00
60583;BME280;46415;47.536;19.066;2023-11-21T01:16:19;-18379.09;;;5.50;100.00
60583;BME280;46415;47.536;19.066;2023-11-21T01:19:21;-18380.22;;;5.54;100.00
60583;BME280;46415;47.536;19.066;2023-11-21T01:22:25;-18381.59;;;5.59;100.00
60583;BME280;46415;47.536;19.066;2023-11-21T01:25:28;-18382.13;;;5.61;100.00
60583;BME280;46415;47.536;19.066;2023-11-21T01:28:31;-18381.88;;;5.60;100.00
60583;BME280;46415;47.536;19.066;2023-11-21T01:31:34;-18382.81;;;5.63;100.00
60583;BME280;46415;47.536;19.066;2023-11-21T01:34:37;-18385.44;;;5.73;100.00
60583;BME280;46415;47.536;19.066;2023-11-21T01:37:40;-18384.34;;;5.69;100.00
60583;BME280;46415;47.536;19.066;2023-11-21T01:40:43;-18381.59;;;5.59;100.00
60583;BME280;46415;47.536;19.066;2023-11-21T01:43:46;-18380.75;;;5.56;100.00
60583;BME280;46415;47.536;19.066;2023-11-21T01:46:49;-18379.66;;;5.52;100.00
60583;BME280;46415;47.536;19.066;2023-11-21T01:49:52;-18377.72;;;5.45;100.00
60583;BME280;46415;47.536;19.066;2023-11-21T01:52:55;-18376.50;;;5.40;100.00
60583;BME280;46415;47.536;19.066;2023-11-21T01:55:58;-18373.87;;;5.30;100.00
60583;BME280;46415;47.536;19.066;2023-11-21T01:59:02;-18371.41;;;5.21;100.00
60583;BME280;46415;47.536;19.066;2023-11-21T02:02:05;-18372.66;;;5.26;100.00
60583;BME280;46415;47.536;19.066;2023-11-21T02:05:09;-18371.28;;;5.21;100.00
60583;BME280;46415;47.536;19.066;2023-11-21T02:08:11;-18371.13;;;5.20;100.00
60583;BME280;46415;47.536;19.066;2023-11-21T02:11:14;-18370.72;;;5.19;100.00
60583;BME280;46415;47.536;19.066;2023-11-21T02:14:18;-18369.91;;;5.16;100.00
60583;BME280;46415;47.536;19.066;2023-11-21T02:17:23;-18369.34;;;5.14;100.00
60583;BME280;46415;47.536;19.066;2023-11-21T02:20:25;-18370.03;;;5.16;100.00
60583;BME280;46415;47.536;19.066;2023-11-21T02:23:29;-18370.84;;;5.19;100.00
60583;BME280;46415;47.536;19.066;2023-11-21T02:26:31;-18373.19;;;5.28;100.00
60583;BME280;46415;47.536;19.066;2023-11-21T02:29:35;-18375.13;;;5.35;100.00
60583;BME280;46415;47.536;19.066;2023-11-21T02:32:38;-18373.34;;;5.28;100.00
60583;BME280;46415;47.536;19.066;2023-11-21T02:35:50;-18372.38;;;5.25;100.00
60583;BME280;46415;47.536;19.066;2023-11-21T02:38:57;-18372.78;;;5.26;100.00
60583;BME280;46415;47.536;19.066;2023-11-21T02:42:00;-18373.47;;;5.29;100.00
60583;BME280;46415;47.536;19.066;2023-11-21T02:45:03;-18373.87;;;5.30;100.00
60583;BME280;46415;47.536;19.066;2023-11-21T02:48:05;-18373.75;;;5.30;100.00
60583;BME280;46415;47.536;19.066;2023-11-21T02:51:09;-18374.44;;;5.32;100.00
60583;BME280;46415;47.536;19.066;2023-11-21T02:54:11;-18374.44;;;5.32;100.00
60583;BME280;46415;47.536;19.066;2023-11-21T02:57:14;-18375.81;;;5.38;100.00
60583;BME280;46415;47.536;19.066;2023-11-21T03:00:17;-18376.50;;;5.40;100.00
60583;BME280;46415;47.536;19.066;2023-11-21T03:03:19;-18376.38;;;5.40;100.00
60583;BME280;46415;47.536;19.066;2023-11-21T03:06:22;-18376.09;;;5.39;100.00
60583;BME280;46415;47.536;19.066;2023-11-21T03:09:26;-18375.53;;;5.37;100.00
60583;BME280;46415;47.536;19.066;2023-11-21T03:12:28;-18375.41;;;5.36;100.00
60583;BME280;46415;47.536;19.066;2023-11-21T03:15:31;-18375.94;;;5.38;100.00
60583;BME280;46415;47.536;19.066;2023-11-21T03:18:35;-18377.19;;;5.43;100.00
60583;BME280;46415;47.536;19.066;2023-11-21T03:21:39;-18376.91;;;5.42;100.00
60583;BME280;46415;47.536;19.066;2023-11-21T03:24:41;-18377.31;;;5.43;100.00
60583;BME280;46415;47.536;19.066;2023-11-21T03:27:44;-18376.38;;;5.40;100.00
60583;BME280;46415;47.536;19.066;2023-11-21T03:30:46;-18378.28;;;5.47;100.00
60583;BME280;46415;47.536;19.066;2023-11-21T03:33:49;-18378.56;;;5.48;100.00
60583;BME280;46415;47.536;19.066;2023-11-21T03:36:52;-18379.66;;;5.52;100.00
60583;BME280;46415;47.536;19.066;2023-11-21T03:39:55;-18380.22;;;5.54;100.00
60583;BME280;46415;47.536;19.066;2023-11-21T03:42:59;-18381.88;;;5.60;100.00
60583;BME280;46415;47.536;19.066;2023-11-21T03:46:02;-18381.31;;;5.58;100.00
60583;BME280;46415;47.536;19.066;2023-11-21T03:49:04;-18381.72;;;5.59;100.00
60583;BME280;46415;47.536;19.066;2023-11-21T03:52:07;-18383.22;;;5.65;100.00
60583;BME280;46415;47.536;19.066;2023-11-21T03:55:10;-18382.41;;;5.62;100.00
60583;BME280;46415;47.536;19.066;2023-11-21T03:58:17;-18383.78;;;5.67;100.00
60583;BME280;46415;47.536;19.066;2023-11-21T04:01:21;-18382.69;;;5.63;100.00
60583;BME280;46415;47.536;19.066;2023-11-21T04:04:24;-18381.59;;;5.59;100.00
60583;BME280;46415;47.536;19.066;2023-11-21T04:07:27;-18380.47;;;5.55;100.00
60583;BME280;46415;47.536;19.066;2023-11-21T04:10:30;-18380.47;;;5.55;100.00
60583;BME280;46415;47.536;19.066;2023-11-21T04:13:33;-18380.91;;;5.56;100.00
60583;BME280;46415;47.536;19.066;2023-11-21T04:16:36;-18381.72;;;5.59;100.00
60583;BME280;46415;47.536;19.066;2023-11-21T04:19:38;-18382.69;;;5.63;100.00
60583;BME280;46415;47.536;19.066;2023-11-21T04:22:42;-18384.06;;;5.68;100.00
60583;BME280;46415;47.536;19.066;2023-11-21T04:25:48;-18384.59;;;5.70;100.00
60583;BME280;46415;47.536;19.066;2023-11-21T04:28:51;-18384.75;;;5.70;100.00
60583;BME280;46415;47.536;19.066;2023-11-21T04:31:54;-18385.97;;;5.75;100.00
60583;BME280;46415;47.536;19.066;2023-11-21T04:34:57;-18389.84;;;5.89;100.00
60583;BME280;46415;47.536;19.066;2023-11-21T04:38:00;-18389.28;;;5.87;100.00
60583;BME280;46415;47.536;19.066;2023-11-21T04:41:03;-18389.97;;;5.90;100.00
60583;BME280;46415;47.536;19.066;2023-11-21T04:44:06;-18387.91;;;5.82;100.00
60583;BME280;46415;47.536;19.066;2023-11-21T04:47:09;-18388.03;;;5.83;100.00
60583;BME280;46415;47.536;19.066;2023-11-21T04:50:12;-18387.63;;;5.81;100.00
60583;BME280;46415;47.536;19.066;2023-11-21T04:53:15;-18388.19;;;5.83;100.00
60583;BME280;46415;47.536;19.066;2023-11-21T04:56:17;-18388.19;;;5.83;100.00
60583;BME280;46415;47.536;19.066;2023-11-21T04:59:20;-18389.44;;;5.88;100.00
60583;BME280;46415;47.536;19.066;2023-11-21T05:02:23;-18388.88;;;5.86;100.00
60583;BME280;46415;47.536;19.066;2023-11-21T05:05:37;-18390.09;;;5.90;100.00
60583;BME280;46415;47.536;19.066;2023-11-21T05:08:40;-18389.84;;;5.89;100.00
60583;BME280;46415;47.536;19.066;2023-11-21T05:11:43;-18389.84;;;5.89;100.00
60583;BME280;46415;47.536;19.066;2023-11-21T05:14:45;-18392.16;;;5.98;100.00
60583;BME280;46415;47.536;19.066;2023-11-21T05:17:49;-18393.69;;;6.03;100.00
60583;BME280;46415;47.536;19.066;2023-11-21T05:20:55;-18393.13;;;6.01;100.00
60583;BME280;46415;47.536;19.066;2023-11-21T05:23:58;-18395.59;;;6.10;100.00
60583;BME280;46415;47.536;19.066;2023-11-21T05:27:01;-18395.88;;;6.11;100.00
60583;BME280;46415;47.536;19.066;2023-11-21T05:30:04;-18394.91;;;6.08;100.00
60583;BME280;46415;47.536;19.066;2023-11-21T05:33:14;-18394.50;;;6.06;100.00
60583;BME280;46415;47.536;19.066;2023-11-21T05:36:17;-18397.25;;;6.17;100.00
60583;BME280;46415;47.536;19.066;2023-11-21T05:39:20;-18397.13;;;6.16;100.00
60583;BME280;46415;47.536;19.066;2023-11-21T05:42:24;-18395.59;;;6.10;100.00
60583;BME280;46415;47.536;19.066;2023-11-21T05:45:26;-18394.50;;;6.06;100.00
60583;BME280;46415;47.536;19.066;2023-11-21T05:48:29;-18393.53;;;6.03;100.00
60583;BME280;46415;47.536;19.066;2023-11-21T05:51:32;-18392.31;;;5.98;100.00
60583;BME280;46415;47.536;19.066;2023-11-21T05:54:35;-18392.72;;;6.00;100.00
60583;BME280;46415;47.536;19.066;2023-11-21T05:57:38;-18393.53;;;6.03;100.00
60583;BME280;46415;47.536;19.066;2023-11-21T06:00:41;-18394.78;;;6.07;100.00
60583;BME280;46415;47.536;19.066;2023-11-21T06:03:44;-18395.75;;;6.11;100.00
60583;BME280;46415;47.536;19.066;2023-11-21T06:06:48;-18398.50;;;6.21;100.00
60583;BME280;46415;47.536;19.066;2023-11-21T06:09:50;-18398.91;;;6.23;100.00
60583;BME280;46415;47.536;19.066;2023-11-21T06:12:53;-18400.13;;;6.27;100.00
60583;BME280;46415;47.536;19.066;2023-11-21T06:15:56;-18401.37;;;6.32;100.00
60583;BME280;46415;47.536;19.066;2023-11-21T06:18:59;-18402.75;;;6.37;100.00
60583;BME280;46415;47.536;19.066;2023-11-21T06:22:02;-18405.78;;;6.48;100.00
60583;BME280;46415;47.536;19.066;2023-11-21T06:25:04;-18406.47;;;6.50;100.00
60583;BME280;46415;47.536;19.066;2023-11-21T06:28:08;-18405.63;;;6.47;100.00
60583;BME280;46415;47.536;19.066;2023-11-21T06:31:10;-18409.47;;;6.62;100.00
60583;BME280;46415;47.536;19.066;2023-11-21T06:34:13;-18408.09;;;6.56;100.00
60583;BME280;46415;47.536;19.066;2023-11-21T06:37:16;-18407.41;;;6.54;100.00
60583;BME280;46415;47.536;19.066;2023-11-21T06:40:19;-18408.25;;;6.57;100.00
60583;BME280;46415;47.536;19.066;2023-11-21T06:43:22;-18411.41;;;6.69;100.00
60583;BME280;46415;47.536;19.066;2023-11-21T06:46:28;-18412.38;;;6.72;100.00
60583;BME280;46415;47.536;19.066;2023-11-21T06:49:31;-18414.56;;;6.80;100.00
60583;BME280;46415;47.536;19.066;2023-11-21T06:52:34;-18414.00;;;6.78;100.00
60583;BME280;46415;47.536;19.066;2023-11-21T06:55:39;-18415.81;;;6.85;100.00
60583;BME280;46415;47.536;19.066;2023-11-21T06:58:41;-18417.31;;;6.90;100.00
60583;BME280;46415;47.536;19.066;2023-11-21T07:01:44;-18419.78;;;7.00;100.00
60583;BME280;46415;47.536;19.066;2023-11-21T07:04:47;-18421.56;;;7.06;100.00
60583;BME280;46415;47.536;19.066;2023-11-21T07:07:49;-18422.38;;;7.09;100.00
60583;BME280;46415;47.536;19.066;2023-11-21T07:10:53;-18422.53;;;7.10;100.00
60583;BME280;46415;47.536;19.066;2023-11-21T07:13:55;-18426.66;;;7.25;100.00
60583;BME280;46415;47.536;19.066;2023-11-21T07:16:58;-18425.00;;;7.19;100.00
60583;BME280;46415;47.536;19.066;2023-11-21T07:20:02;-18425.41;;;7.20;100.00
60583;BME280;46415;47.536;19.066;2023-11-21T07:23:05;-18425.53;;;7.21;100.00
60583;BME280;46415;47.536;19.066;2023-11-21T07:26:08;-18428.28;;;7.31;100.00
60583;BME280;46415;47.536;19.066;2023-11-21T07:29:13;-18427.75;;;7.29;100.00
60583;BME280;46415;47.536;19.066;2023-11-21T07:32:15;-18428.44;;;7.31;100.00
60583;BME280;46415;47.536;19.066;2023-11-21T07:35:18;-18428.84;;;7.33;100.00
60583;BME280;46415;47.536;19.066;2023-11-21T07:38:21;-18429.53;;;7.35;100.00
60583;BME280;46415;47.536;19.066;2023-11-21T07:41:24;-18430.75;;;7.40;100.00
60583;BME280;46415;47.536;19.066;2023-11-21T07:44:33;-18433.22;;;7.49;100.00
60583;BME280;46415;47.536;19.066;2023-11-21T07:47:35;-18434.47;;;7.54;100.00
60583;BME280;46415;47.536;19.066;2023-11-21T07:50:38;-18435.97;;;7.59;100.00
60583;BME280;46415;47.536;19.066;2023-11-21T07:53:41;-18437.06;;;7.63;100.00
60583;BME280;46415;47.536;19.066;2023-11-21T07:56:44;-18439.00;;;7.70;100.00
60583;BME280;46415;47.536;19.066;2023-11-21T07:59:47;-18441.59;;;7.80;100.00
60583;BME280;46415;47.536;19.066;2023-11-21T08:02:50;-18444.47;;;7.91;100.00
60583;BME280;46415;47.536;19.066;2023-11-21T08:05:53;-18445.59;;;7.95;100.00
60583;BME280;46415;47.536;19.066;2023-11-21T08:08:56;-18447.38;;;8.01;100.00
60583;BME280;46415;47.536;19.066;2023-11-21T08:11:59;-18449.84;;;8.10;100.00
60583;BME280;46415;47.536;19.066;2023-11-21T08:15:03;-18453.00;;;8.22;100.00
60583;BME280;46415;47.536;19.066;2023-11-21T08:18:06;-18455.88;;;8.33;100.00
60583;BME280;46415;47.536;19.066;2023-11-21T08:21:12;-18458.62;;;8.43;100.00
60583;BME280;46415;47.536;19.066;2023-11-21T08:24:15;-18460.94;;;8.51;100.00
60583;BME280;46415;47.536;19.066;2023-11-21T08:27:18;-18464.78;;;8.66;100.00
60583;BME280;46415;47.536;19.066;2023-11-21T08:30:21;-18465.75;;;8.69;100.00
60583;BME280;46415;47.536;19.066;2023-11-21T08:33:26;-18466.44;;;8.72;100.00
60583;BME280;46415;47.536;19.066;2023-11-21T08:36:29;-18467.66;;;8.76;100.00
60583;BME280;46415;47.536;19.066;2023-11-21T08:39:33;-18470.00;;;8.85;100.00
60583;BME280;46415;47.536;19.066;2023-11-21T08:42:36;-18474.25;;;9.00;100.00
60583;BME280;46415;47.536;19.066;2023-11-21T08:45:39;-18477.81;;;9.14;100.00
60583;BME280;46415;47.536;19.066;2023-11-21T08:48:42;-18479.31;;;9.19;100.00
60583;BME280;46415;47.536;19.066;2023-11-21T08:51:46;-18482.47;;;9.31;100.00
60583;BME280;46415;47.536;19.066;2023-11-21T08:54:49;-18485.09;;;9.40;100.00
60583;BME280;46415;47.536;19.066;2023-11-21T08:57:58;-18484.81;;;9.39;100.00
60583;BME280;46415;47.536;19.066;2023-11-21T09:01:04;-18486.59;;;9.46;100.00
60583;BME280;46415;47.536;19.066;2023-11-21T09:04:06;-18486.19;;;9.45;100.00
60583;BME280;46415;47.536;19.066;2023-11-21T09:07:09;-18483.44;;;9.34;100.00
60583;BME280;46415;47.536;19.066;2023-11-21T09:10:12;-18484.25;;;9.37;100.00
60583;BME280;46415;47.536;19.066;2023-11-21T09:13:15;-18484.94;;;9.40;100.00
60583;BME280;46415;47.536;19.066;2023-11-21T09:16:18;-18486.31;;;9.45;100.00
60583;BME280;46415;47.536;19.066;2023-11-21T09:19:22;-18487.53;;;9.50;100.00
60583;BME280;46415;47.536;19.066;2023-11-21T09:22:25;-18488.50;;;9.53;100.00
60583;BME280;46415;47.536;19.066;2023-11-21T09:25:28;-18492.06;;;9.66;100.00
60583;BME280;46415;47.536;19.066;2023-11-21T09:28:32;-18493.44;;;9.71;100.00
60583;BME280;46415;47.536;19.066;2023-11-21T09:31:34;-18495.06;;;9.77;100.00
60583;BME280;46415;47.536;19.066;2023-11-21T09:34:38;-18496.31;;;9.82;100.00
60583;BME280;46415;47.536;19.066;2023-11-21T09:37:41;-18496.03;;;9.81;100.00
60583;BME280;46415;47.536;19.066;2023-11-21T09:40:46;-18498.63;;;9.91;100.00
60583;BME280;46415;47.536;19.066;2023-11-21T09:43:49;-18498.22;;;9.89;100.00
60583;BME280;46415;47.536;19.066;2023-11-21T09:46:56;-18501.94;;;10.03;100.00
60583;BME280;46415;47.536;19.066;2023-11-21T09:50:01;-18501.78;;;10.02;100.00
60583;BME280;46415;47.536;19.066;2023-11-21T09:53:17;-18501.53;;;10.01;100.00
60583;BME280;46415;47.536;19.066;2023-11-21T09:56:20;-18502.34;;;10.04;100.00
60583;BME280;46415;47.536;19.066;2023-11-21T09:59:27;-18501.09;;;10.00;100.00
60583;BME280;46415;47.536;19.066;2023-11-21T10:02:32;-18500.97;;;9.99;100.00
60583;BME280;46415;47.536;19.066;2023-11-21T10:05:37;-18501.09;;;10.00;100.00
60583;BME280;46415;47.536;19.066;2023-11-21T10:08:40;-18500.16;;;9.96;100.00
60583;BME280;46415;47.536;19.066;2023-11-21T10:11:54;-18501.53;;;10.01;100.00
60583;BME280;46415;47.536;19.066;2023-11-21T10:14:58;-18504.53;;;10.12;100.00
60583;BME280;46415;47.536;19.066;2023-11-21T10:18:03;-18506.19;;;10.18;100.00
60583;BME280;46415;47.536;19.066;2023-11-21T10:21:06;-18508.09;;;10.26;100.00
60583;BME280;46415;47.536;19.066;2023-11-21T10:24:09;-18510.44;;;10.34;100.00
60583;BME280;46415;47.536;19.066;2023-11-21T10:27:12;-18513.31;;;10.45;100.00
60583;BME280;46415;47.536;19.066;2023-11-21T10:30:15;-18517.97;;;10.62;100.00
60583;BME280;46415;47.536;19.066;2023-11-21T10:33:18;-18516.59;;;10.57;100.00
60583;BME280;46415;47.536;19.066;2023-11-21T10:36:29;-18518.22;;;10.63;100.00
60583;BME280;46415;47.536;19.066;2023-11-21T10:39:32;-18520.16;;;10.70;100.00
60583;BME280;46415;47.536;19.066;2023-11-21T10:42:35;-18522.34;;;10.78;100.00
60583;BME280;46415;47.536;19.066;2023-11-21T10:45:38;-18528.09;;;10.99;100.00
60583;BME280;46415;47.536;19.066;2023-11-21T10:48:44;-18529.72;;;11.05;100.00
60583;BME280;46415;47.536;19.066;2023-11-21T10:51:46;-18533.69;;;11.20;100.00
60583;BME280;46415;47.536;19.066;2023-11-21T10:54:51;-18538.75;;;11.39;100.00
60583;BME280;46415;47.536;19.066;2023-11-21T10:58:00;-18537.66;;;11.35;100.00
60583;BME280;46415;47.536;19.066;2023-11-21T11:01:05;-18537.66;;;11.35;100.00
60583;BME280;46415;47.536;19.066;2023-11-21T11:04:08;-18542.47;;;11.53;100.00
60583;BME280;46415;47.536;19.066;2023-11-21T11:07:17;-18543.41;;;11.56;100.00
60583;BME280;46415;47.536;19.066;2023-11-21T11:10:20;-18547.09;;;11.70;100.00
60583;BME280;46415;47.536;19.066;2023-11-21T11:13:25;-18547.78;;;11.72;100.00
60583;BME280;46415;47.536;19.066;2023-11-21T11:16:28;-18545.75;;;11.65;99.98
60583;BME280;46415;47.536;19.066;2023-11-21T11:19:31;-18547.94;;;11.73;99.79
60583;BME280;46415;47.536;19.066;2023-11-21T11:22:37;-18550.81;;;11.83;100.00
60583;BME280;46415;47.536;19.066;2023-11-21T11:35:10;-18547.78;;;11.72;100.00
60583;BME280;46415;47.536;19.066;2023-11-21T11:38:21;-18544.09;;;11.59;100.00
60583;BME280;46415;47.536;19.066;2023-11-21T11:41:25;-18544.78;;;11.61;100.00
60583;BME280;46415;47.536;19.066;2023-11-21T11:47:56;-18541.78;;;11.50;100.00
60583;BME280;46415;47.536;19.066;2023-11-21T11:54:07;-18543.97;;;11.58;100.00
60583;BME280;46415;47.536;19.066;2023-11-21T11:57:10;-18543.97;;;11.58;100.00
60583;BME280;46415;47.536;19.066;2023-11-21T12:03:25;-18543.69;;;11.57;100.00
60583;BME280;46415;47.536;19.066;2023-11-21T12:06:34;-18544.50;;;11.60;100.00
60583;BME280;46415;47.536;19.066;2023-11-21T12:09:37;-18544.38;;;11.60;100.00
60583;BME280;46415;47.536;19.066;2023-11-21T12:12:43;-18544.50;;;11.60;100.00
60583;BME280;46415;47.536;19.066;2023-11-21T12:15:47;-18545.31;;;11.63;100.00
60583;BME280;46415;47.536;19.066;2023-11-21T12:18:50;-18546.00;;;11.66;100.00
60583;BME280;46415;47.536;19.066;2023-11-21T12:21:53;-18544.09;;;11.59;100.00
60583;BME280;46415;47.536;19.066;2023-11-21T12:24:55;-18543.13;;;11.55;100.00
60583;BME280;46415;47.536;19.066;2023-11-21T12:28:00;-18542.59;;;11.53;100.00
60583;BME280;46415;47.536;19.066;2023-11-21T12:31:03;-18541.38;;;11.49;100.00
60583;BME280;46415;47.536;19.066;2023-11-21T12:34:20;-18544.09;;;11.59;100.00
60583;BME280;46415;47.536;19.066;2023-11-21T12:37:26;-18543.13;;;11.55;100.00
60583;BME280;46415;47.536;19.066;2023-11-21T12:40:29;-18543.13;;;11.55;100.00
60583;BME280;46415;47.536;19.066;2023-11-21T12:43:32;-18543.97;;;11.58;100.00
60583;BME280;46415;47.536;19.066;2023-11-21T12:46:40;-18545.31;;;11.63;100.00
60583;BME280;46415;47.536;19.066;2023-11-21T12:49:43;-18544.38;;;11.60;100.00
60583;BME280;46415;47.536;19.066;2023-11-21T12:52:47;-18543.56;;;11.57;100.00
60583;BME280;46415;47.536;19.066;2023-11-21T12:55:50;-18543.81;;;11.58;100.00
60583;BME280;46415;47.536;19.066;2023-11-21T12:58:54;-18541.62;;;11.50;100.00
60583;BME280;46415;47.536;19.066;2023-11-21T13:01:59;-18543.00;;;11.55;100.00
60583;BME280;46415;47.536;19.066;2023-11-21T13:05:07;-18543.81;;;11.58;100.00
60583;BME280;46415;47.536;19.066;2023-11-21T13:08:21;-18544.50;;;11.60;100.00
60583;BME280;46415;47.536;19.066;2023-11-21T13:11:25;-18543.97;;;11.58;100.00
60583;BME280;46415;47.536;19.066;2023-11-21T13:14:29;-18542.88;;;11.54;100.00
60583;BME280;46415;47.536;19.066;2023-11-21T13:17:34;-18542.03;;;11.51;100.00
60583;BME280;46415;47.536;19.066;2023-11-21T13:20:37;-18539.84;;;11.43;100.00
60583;BME280;46415;47.536;19.066;2023-11-21T13:23:40;-18537.66;;;11.35;100.00
60583;BME280;46415;47.536;19.066;2023-11-21T13:26:43;-18534.25;;;11.22;100.00
60583;BME280;46415;47.536;19.066;2023-11-21T13:29:48;-18533.16;;;11.18;100.00
60583;BME280;46415;47.536;19.066;2023-11-21T13:32:50;-18530.16;;;11.07;100.00
60583;BME280;46415;47.536;19.066;2023-11-21T13:35:54;-18527.94;;;10.99;100.00
60583;BME280;46415;47.536;19.066;2023-11-21T13:38:58;-18525.22;;;10.89;100.00
60583;BME280;46415;47.536;19.066;2023-11-21T13:42:02;-18522.62;;;10.79;100.00
60583;BME280;46415;47.536;19.066;2023-11-21T13:45:05;-18520.00;;;10.70;100.00
60583;BME280;46415;47.536;19.066;2023-11-21T13:48:09;-18517.00;;;10.58;100.00
60583;BME280;46415;47.536;19.066;2023-11-21T13:51:16;-18517.69;;;10.61;100.00
60583;BME280;46415;47.536;19.066;2023-11-21T13:54:23;-18513.56;;;10.46;100.00
60583;BME280;46415;47.536;19.066;2023-11-21T13:57:27;-18513.44;;;10.45;100.00
60583;BME280;46415;47.536;19.066;2023-11-21T14:00:31;-18510.28;;;10.34;100.00
60583;BME280;46415;47.536;19.066;2023-11-21T14:03:50;-18509.34;;;10.30;100.00
60583;BME280;46415;47.536;19.066;2023-11-21T14:06:59;-18510.44;;;10.34;100.00
60583;BME280;46415;47.536;19.066;2023-11-21T14:10:13;-18508.22;;;10.26;100.00
60583;BME280;46415;47.536;19.066;2023-11-21T14:13:18;-18507.56;;;10.23;100.00
60583;BME280;46415;47.536;19.066;2023-11-21T14:16:22;-18505.34;;;10.15;100.00
60583;BME280;46415;47.536;19.066;2023-11-21T14:19:25;-18500.16;;;9.96;100.00
60583;BME280;46415;47.536;19.066;2023-11-21T14:22:35;-18498.50;;;9.90;100.00
60583;BME280;46415;47.536;19.066;2023-11-21T14:25:38;-18498.78;;;9.91;100.00
60583;BME280;46415;47.536;19.066;2023-11-21T14:28:44;-18493.03;;;9.70;100.00
60583;BME280;46415;47.536;19.066;2023-11-21T14:31:47;-18488.50;;;9.53;100.00
60583;BME280;46415;47.536;19.066;2023-11-21T14:34:51;-18483.44;;;9.34;100.00
60583;BME280;46415;47.536;19.066;2023-11-21T14:37:53;-18482.88;;;9.32;100.00
60583;BME280;46415;47.536;19.066;2023-11-21T14:40:56;-18480.81;;;9.25;100.00
60583;BME280;46415;47.536;19.066;2023-11-21T14:43:59;-18480.69;;;9.24;100.00
60583;BME280;46415;47.536;19.066;2023-11-21T14:47:05;-18478.50;;;9.16;100.00
60583;BME280;46415;47.536;19.066;2023-11-21T14:50:10;-18474.09;;;9.00;100.00
60583;BME280;46415;47.536;19.066;2023-11-21T14:53:42;-18470.13;;;8.85;100.00
60583;BME280;46415;47.536;19.066;2023-11-21T14:56:56;-18467.81;;;8.77;100.00
60583;BME280;46415;47.536;19.066;2023-11-21T14:59:59;-18465.63;;;8.69;100.00
60583;BME280;46415;47.536;19.066;2023-11-21T15:03:04;-18462.31;;;8.56;100.00
60583;BME280;46415;47.536;19.066;2023-11-21T15:06:08;-18458.62;;;8.43;100.00
60583;BME280;46415;47.536;19.066;2023-11-21T15:09:29;-18456.28;;;8.34;100.00
60583;BME280;46415;47.536;19.066;2023-11-21T15:12:52;-18454.09;;;8.26;100.00
60583;BME280;46415;47.536;19.066;2023-11-21T15:15:55;-18451.34;;;8.16;100.00
60583;BME280;46415;47.536;19.066;2023-11-21T15:18:58;-18449.97;;;8.11;100.00
60583;BME280;46415;47.536;19.066;2023-11-21T15:22:00;-18446.28;;;7.97;100.00
60583;BME280;46415;47.536;19.066;2023-11-21T15:25:03;-18444.06;;;7.89;100.00
60583;BME280;46415;47.536;19.066;2023-11-21T15:28:12;-18441.75;;;7.80;100.00
60583;BME280;46415;47.536;19.066;2023-11-21T15:31:15;-18438.44;;;7.68;100.00
60583;BME280;46415;47.536;19.066;2023-11-21T15:34:22;-18437.75;;;7.66;100.00
60583;BME280;46415;47.536;19.066;2023-11-21T15:37:25;-18437.34;;;7.64;100.00
60583;BME280;46415;47.536;19.066;2023-11-21T15:40:31;-18435.56;;;7.58;100.00
60583;BME280;46415;47.536;19.066;2023-11-21T15:43:34;-18432.28;;;7.46;100.00
60583;BME280;46415;47.536;19.066;2023-11-21T15:46:37;-18428.72;;;7.32;100.00
60583;BME280;46415;47.536;19.066;2023-11-21T15:49:42;-18425.41;;;7.20;100.00
60583;BME280;46415;47.536;19.066;2023-11-21T15:52:45;-18423.50;;;7.13;100.00
60583;BME280;46415;47.536;19.066;2023-11-21T15:55:59;-18421.97;;;7.08;100.00
60583;BME280;46415;47.536;19.066;2023-11-21T15:59:02;-18425.00;;;7.19;100.00
60583;BME280;46415;47.536;19.066;2023-11-21T16:02:06;-18425.28;;;7.20;100.00
60583;BME280;46415;47.536;19.066;2023-11-21T16:05:10;-18424.44;;;7.17;100.00
60583;BME280;46415;47.536;19.066;2023-11-21T16:08:15;-18421.56;;;7.06;100.00